NCAR-RAP Real-Time Weather Data

Output produced by METARs form (12 May 2021  11:33 UTC)
found at http://weather.rap.ucar.edu/surface/
 
KDEN 121053Z VRB03KT 10SM FEW035 FEW120 02/00 A3026 RMK AO2 SLP243 T00220000
KDEN 120953Z 20005KT 10SM FEW035 FEW120 02/00 A3026 RMK AO2 SLP245 T00220000
KDEN 120853Z 16008KT 10SM BKN035 BKN120 02/01 A3026 RMK AO2 SLP245 T00220006 58009
KDEN 120753Z 16007KT 10SM FEW033 BKN120 02/01 A3028 RMK AO2 SLP248 T00220011
KDEN 120653Z 15007KT 10SM SCT035 BKN120 03/02 A3028 RMK AO2 SLP247 T00280022 400610006
KDEN 120553Z 13005KT 10SM BKN037 BKN120 04/03 A3029 RMK AO2 SLP248 T00440033 10061 20044 50002
KDEN 120453Z 25003KT 10SM FEW025 OVC035 06/03 A3030 RMK AO2 SLP250 T00560028
KDEN 120353Z 13003KT 10SM OVC033 05/03 A3030 RMK AO2 SLP255 T00500028
KDEN 120253Z 00000KT 10SM FEW022 BKN034 05/03 A3028 RMK AO2 SLP250 T00500028 53009
KDEN 120209Z 01005KT 10SM FEW017 SCT022 BKN032 05/02 A3027 RMK AO2 T00500022
KDEN 120153Z 36006KT 10SM SCT015 BKN021 BKN032 05/03 A3027 RMK AO2 SLP244 T00500028
KDEN 120053Z 33007KT 10SM BKN015 OVC033 06/03 A3025 RMK AO2 SLP239 T00560028
KDEN 120047Z 34005KT 10SM BKN015 OVC033 06/03 A3025 RMK AO2
KDEN 120028Z 00000KT 10SM FEW020 BKN034 BKN045 06/03 A3025 RMK AO2 T00610028
KDEN 112353Z 16003KT 10SM BKN015 BKN220 06/02 A3024 RMK AO2 SLP236 60014 T00560022 10061 20039 53006
KDEN 112313Z 00000KT 10SM SCT010 BKN016 BKN039 BKN220 06/02 A3023 RMK AO2 T00560022
KDEN 112253Z 20004KT 10SM FEW008 BKN010 OVC044 05/03 A3023 RMK AO2 RAE01B36E53 SLP234 P0000 T00500033
KDEN 112244Z 20004KT 9SM -RA FEW008 BKN012 OVC044 05/03 A3023 RMK AO2 RAE01B36 P0000 T00500033
KDEN 112214Z 12004KT 10SM FEW008 BKN034 OVC047 04/02 A3022 RMK AO2 RAE01 P0000 T00390022
KDEN 112153Z 11003KT 6SM -RA BR SCT008 OVC015 04/02 A3022 RMK AO2 SLP233 P0011 T00390022
KDEN 112144Z 00000KT 5SM R35L/2000VP6000FT -RA BR SCT008 OVC015 04/02 A3022 RMK AO2 VIS NE-SE 2 1/2 P0010 T00390022